Flight Track Log - Related Links

Times and Time Zones

All times are in EDT time to prevent confusion due to time zone crossing. See the N66SG flight status page for this flight to view local times or setup timezone preferences in your user account.

Time Position Orientation Groundspeed Altitude Reporting Facility
EDT Latitude Longitude Course Direction KTS MPH feet Rate Location/Type
Sun 12:05:20 AM 41.4264 -72.0192 304° West 320 368 6,200  Level Boston Center
Sun 12:06:20 AM 41.5014 -72.0106 North 246 283 10,400 3,874 Climbing Boston Center
Sun 12:07:27 AM 41.5722 -72.0517 337° Northwest 268 308 14,400 3,099 Climbing Boston Center
Sun 12:08:51 AM 41.6039 -72.1819 288° West 303 349 18,200 3,167 Climbing Boston Center
Sun 12:09:51 AM 41.6522 -72.3233 295° West 330 380 22,000 2,471 Climbing Boston Center
Sun 12:10:00 AM 41.6563 -72.4626 304° West  Level FlightAware Approximate
Sun 12:10:50 AM 41.6961 -72.4456 296° West 353 406 23,100  Level Boston Center
Sun 12:11:50 AM 41.7397 -72.5986 291° West 400 460 23,100 500 Level Boston Center
Sun 12:12:50 AM 41.7642 -72.7603 282° West 431 496 24,100 1,900 Climbing Boston Center
Sun 12:13:50 AM 41.7931 -72.9161 284° West 437 503 26,900 2,450 Climbing Boston Center
Sun 12:14:50 AM 41.8172 -73.0417 285° West 414 476 29,000 2,200 Climbing Boston Center
Sun 12:15:50 AM 41.8436 -73.1842 284° West 402 463 31,300 2,300 Climbing Boston Center
Sun 12:16:50 AM 41.8717 -73.3294 285° West 402 463 33,600 2,150 Climbing Boston Center
Sun 12:17:50 AM 41.8975 -73.4719 284° West 402 463 35,600 2,050 Climbing Boston Center
Sun 12:18:50 AM 41.9233 -73.6147 284° West 397 457 37,700 2,050 Climbing Boston Center
Sun 12:19:50 AM 41.9489 -73.7519 284° West 397 457 39,700 1,650 Climbing Boston Center
Sun 12:20:50 AM 41.9722 -73.8894 283° West 386 444 41,000 1,000 Climbing Boston Center
Sun 12:21:50 AM 41.9997 -74.0242 285° West 386 444 41,700 650 Climbing Boston Center
Sun 12:22:50 AM 42.0225 -74.1644 282° West 381 438 42,300 650 Climbing Boston Center
Sun 12:23:50 AM 42.0494 -74.3078 284° West 381 438 43,000 350 Climbing Boston Center
Sun 12:24:50 AM 42.0781 -74.4708 283° West 400 460 43,000  Level Boston Center
Sun 12:25:50 AM 42.1042 -74.6283 283° West 419 482 43,000  Level Boston Center
Sun 12:26:50 AM 42.1322 -74.7917 283° West 432 497 43,000  Level Boston Center
Sun 12:27:50 AM 42.1619 -74.9581 284° West 449 517 43,000  Level Boston Center
Sun 12:28:50 AM 42.1894 -75.1219 283° West 449 517 43,000  Level Boston Center
Sun 12:29:50 AM 42.2189 -75.2856 284° West 449 517 43,000  Level Boston Center
Sun 12:30:50 AM 42.2478 -75.4525 283° West 454 522 43,000  Level Boston Center
Sun 12:31:50 AM 42.2744 -75.6194 282° West 454 522 43,000  Level Boston Center
Sun 12:32:50 AM 42.3011 -75.7864 282° West 454 522 43,000  Level Boston Center
Sun 12:33:50 AM 42.3272 -75.9536 282° West 454 522 43,000  Level Boston Center
Sun 12:34:50 AM 42.3553 -76.1239 283° West 454 522 43,000  Level Boston Center
Sun 12:36:48 AM 42.4069 -76.4461 282° West 466 536 43,000  Level Cleveland Center
Sun 12:37:10 AM 42.4000 -76.4667 245° Southwest 460 529 43,000  Level Toronto Center
Sun 12:38:10 AM 42.4333 -76.6500 284° West 450 518 43,000  Level Toronto Center
Sun 12:38:48 AM 42.4528 -76.7472 285° West 461 531 43,000  Level Cleveland Center
Sun 12:39:48 AM 42.4789 -76.9147 282° West 467 537 43,000  Level Cleveland Center
Sun 12:40:48 AM 42.5053 -77.0933 281° West 462 532 43,000  Level Cleveland Center
Sun 12:41:48 AM 42.5314 -77.2639 282° West 462 532 43,000  Level Cleveland Center
Sun 12:42:48 AM 42.5547 -77.4289 281° West 462 532 43,000  Level Cleveland Center
Sun 12:43:48 AM 42.5800 -77.6025 281° West 471 542 43,000  Level Cleveland Center
Sun 12:44:48 AM 42.6053 -77.7764 281° West 471 542 43,000  Level Cleveland Center
Sun 12:45:48 AM 42.6300 -77.9417 282° West 463 533 43,000  Level Cleveland Center
Sun 12:46:48 AM 42.6400 -78.1106 275° West 463 533 43,000  Level Cleveland Center
Sun 12:47:48 AM 42.6458 -78.2856 273° West 463 533 43,000  Level Cleveland Center
Sun 12:48:48 AM 42.6469 -78.4547 271° West 457 526 43,000  Level Cleveland Center
Sun 12:49:48 AM 42.6542 -78.6267 273° West 457 526 43,000  Level Cleveland Center
Sun 12:50:48 AM 42.6592 -78.7989 272° West 457 526 43,000  Level Cleveland Center
Sun 12:51:48 AM 42.6617 -78.9711 271° West 457 526 43,000  Level Cleveland Center
Sun 12:52:48 AM 42.6658 -79.1431 272° West 457 526 43,000  Level Cleveland Center
Sun 12:53:48 AM 42.6681 -79.3153 271° West 457 526 43,000  Level Cleveland Center
Sun 12:54:48 AM 42.6697 -79.4875 271° West 457 526 43,000  Level Cleveland Center
Sun 12:55:48 AM 42.6733 -79.6653 272° West 457 526 43,000  Level Cleveland Center
Sun 12:56:48 AM 42.6767 -79.8378 272° West 457 526 43,000 -250 Level Cleveland Center
Sun 12:57:48 AM 42.6778 -80.0269 271° West 457 526 42,500 -1,050 Descending Cleveland Center
Sun 12:58:48 AM 42.6783 -80.1992 270° West 457 526 40,900 -1,900 Descending Cleveland Center
Sun 12:59:48 AM 42.6808 -80.3658 271° West 450 518 38,700 -2,000 Descending Cleveland Center
Sun 01:00:48 AM 42.6811 -80.5156 270° West 445 512 36,900 -2,000 Descending Cleveland Center
Sun 01:01:48 AM 42.6811 -80.6792 270° West 438 504 34,700 -2,200 Descending Cleveland Center
Sun 01:02:48 AM 42.6831 -80.8403 271° West 438 504 32,500 -2,200 Descending Cleveland Center
Sun 01:03:48 AM 42.6844 -81.0097 271° West 438 504 30,300 -2,150 Descending Cleveland Center
Sun 01:04:48 AM 42.6836 -81.1819 270° West 445 512 28,200 -2,100 Descending Cleveland Center
Sun 01:05:48 AM 42.6828 -81.3542 270° West 458 527 26,100 -2,100 Descending Cleveland Center
Sun 01:06:48 AM 42.6836 -81.5236 270° West 458 527 24,000 -2,100 Descending Cleveland Center
Sun 01:07:48 AM 42.6819 -81.6958 269° West 458 527 21,900 -2,200 Descending Cleveland Center
Sun 01:08:48 AM 42.6822 -81.8853 270° West 458 527 19,600 -2,100 Descending Cleveland Center
Sun 01:09:48 AM 42.6800 -82.0517 269° West 458 527 17,700 -2,000 Descending Cleveland Center
Sun 01:10:48 AM 42.6778 -82.2156 269° West 453 521 15,600 -2,100 Descending Cleveland Center
Sun 01:11:48 AM 42.6775 -82.3736 270° West 438 504 13,500 -2,103 Descending Cleveland Center
Sun 01:12:25 AM 42.6781 -82.4753 270° West 407 468 12,200 -2,100 Descending Cleveland Center
Sun 01:12:48 AM 42.6772 -82.5233 269° West 420 483 11,400 -1,612 Descending Cleveland Center
Sun 01:13:32 AM 42.6775 -82.6250 270° West 334 384 10,400 -1,100 Descending Cleveland Center
Sun 01:13:48 AM 42.6750 -82.6589 264° West 387 445 10,300 -1,082 Descending Cleveland Center
Sun 01:14:33 AM 42.6756 -82.7381 271° West 291 335 9,300 -1,400 Descending Cleveland Center
Sun 01:14:48 AM 42.6728 -82.7689 263° West 338 389 8,900 -1,600 Descending Cleveland Center
Sun 01:15:33 AM 42.6733 -82.8536 271° West 282 325 7,700 -1,500 Descending Cleveland Center
Sun 01:15:48 AM 42.6731 -82.8733 269° West 301 346 7,400 -1,522 Descending Cleveland Center
Sun 01:16:40 AM 42.6731 -82.9667 270° West 274 315 6,000 -1,540 Descending Cleveland Center
Sun 01:17:41 AM 42.6711 -83.0683 269° West 272 313 4,500 -938 Descending Cleveland Center
Sun 01:18:48 AM 42.6664 -83.1753 267° West 277 319 4,000 -236 Descending Cleveland Center
Sun 01:19:48 AM 42.6642 -83.2797 268° West 277 319 4,000  Level Cleveland Center
Sun 01:20:48 AM 42.6617 -83.3869 268° West 277 319 4,000  Level Cleveland Center
Sun 01:21:48 AM 42.6589 -83.4914 268° West 277 319 4,000  Level Cleveland Center
Sun 01:23:00 AM 42.6500 -83.4167 90° East  Level FlightAware Approximate
Sun 01:30:00 AM 42.6656 -83.4205 90° East  Level Estimated

Login

Don't have an account? Register now (free) for customized features, flight alerts, and more!